YBUY weather

Bunyan Airfield
New South Wales, Australia

Public forecast

Using degrees Celsius for public forecast. Weather courtesy of forecast.io.

METAR (pilot weather report)

Closest report is Cooma Snowy Mountains Airport, 12.6 nm (23.3 km) SW. Retrieved 2019/03/21 06:00 UTC (46 seconds ago):

YCOM 210600Z AUTO 22003KT 9999 // BKN050 OVC100 22/12 Q1018

TAF (pilot weather forecast)

Forecast is more than 12 hours old.

Closest forecast is Canberra International Airport, 49.8 nm (92.2 km) N. Retrieved 2019/03/19 00:00 UTC (2 days ago):

TAF YSCB 192252Z 2000/2024 13008KT 9999 FEW035 FM200300 11010KT 9999 -SHRA SCT045 BECMG 2010/2012 10005KT 9999 BKN020 BECMG 2021/2022 12006KT 9999 FEW030 PROB30 INTER 2004/2008 VRB15G25KT 3000 TSRA BKN020 SCT045CB